Time;durP1;ratioP1;P1;durP2;ratioP2;P2;SDS_P1;SDS_P2;PMS_P1;PMS_P2;Temp;Humidity;BMP_temperature;BMP_pressure;BME280_temperature;BME280_humidity;BME280_pressure;Samples;Min_cycle;Max_cycle;Signal;HPM_P1;HPM_P2
2023/03/17 00:01:10;;;;;;;;;;;;;;;-144.99;71.72;52476.63;4998786;28;20209;-65
2023/03/17 00:03:38;;;;;;;;;;;;;;;-144.99;71.71;52468.47;5010515;28;20011;-65
2023/03/17 00:06:05;;;;;;;;;;;;;;;-144.99;71.81;52484.78;5002010;28;19930;-64
2023/03/17 00:08:32;;;;;;;;;;;;;;;-144.99;71.93;52464.41;5005059;28;19926;-65
2023/03/17 00:11:00;;;;;;;;;;;;;;;-144.99;71.87;52501.09;5001823;28;19926;-64
2023/03/17 00:13:27;;;;;;;;;;;;;;;-144.99;71.98;52505.16;4993176;28;19984;-64
2023/03/17 00:15:55;;;;;;;;;;;;;;;-144.99;71.87;52505.16;4996232;28;20510;-63
2023/03/17 00:18:22;;;;;;;;;;;;;;;-144.99;71.92;52484.78;4990465;28;19937;-64
2023/03/17 00:20:49;;;;;;;;;;;;;;;-144.99;71.98;52501.09;4995632;28;19964;-64
2023/03/17 00:23:17;;;;;;;;;;;;;;;-144.99;72.01;52480.72;4985619;28;20343;-65
2023/03/17 00:25:44;;;;;;;;;;;;;;;-144.99;72.00;52460.31;5001054;28;19926;-68
2023/03/17 00:28:16;;;;;;;;;;;;;;;-144.99;71.95;52484.78;5000504;28;19934;-65
2023/03/17 00:30:43;;;;;;;;;;;;;;;-144.99;72.03;52452.16;4998802;28;19940;-64
2023/03/17 00:33:11;;;;;;;;;;;;;;;-144.99;71.99;52509.25;4998160;28;19985;-63
2023/03/17 00:35:38;;;;;;;;;;;;;;;-144.99;72.24;52460.31;4998045;28;20816;-64
2023/03/17 00:38:06;;;;;;;;;;;;;;;-144.99;72.10;52476.63;5001578;28;20758;-65
2023/03/17 00:40:33;;;;;;;;;;;;;;;-144.99;72.14;52509.25;5000552;28;19930;-66
2023/03/17 00:42:59;;;;;;;;;;;;;;;-144.99;72.39;52476.63;5000434;28;19992;-66
2023/03/17 00:45:27;;;;;;;;;;;;;;;-144.99;72.21;52460.31;5001139;28;19953;-71
2023/03/17 00:47:55;;;;;;;;;;;;;;;-144.99;72.31;52468.47;4996236;28;19976;-69
2023/03/17 00:50:23;;;;;;;;;;;;;;;-144.99;72.41;52492.94;5002678;28;19965;-65
2023/03/17 00:52:50;;;;;;;;;;;;;;;-144.99;72.41;52452.16;4993709;28;19925;-66
2023/03/17 00:55:17;;;;;;;;;;;;;;;-144.99;72.45;52490.91;5002462;28;19936;-64
2023/03/17 00:57:43;;;;;;;;;;;;;;;-144.99;72.73;52456.25;4998301;28;19980;-64
2023/03/17 01:00:21;;;;;;;;;;;;;;;-144.99;72.74;52511.28;4997901;28;19972;-65
2023/03/17 01:02:51;;;;;;;;;;;;;;;-144.99;72.87;52486.81;4996465;28;19934;-65
2023/03/17 01:05:18;;;;;;;;;;;;;;;-144.99;72.85;52472.56;4998760;28;20045;-66
2023/03/17 01:07:46;;;;;;;;;;;;;;;-144.99;73.04;52480.72;4996504;28;20001;-65
2023/03/17 01:10:15;;;;;;;;;;;;;;;-144.99;73.09;52476.63;4994020;28;19929;-65
2023/03/17 01:12:42;;;;;;;;;;;;;;;-144.99;73.34;52511.28;5000111;28;20350;-65
2023/03/17 01:15:09;;;;;;;;;;;;;;;-144.99;73.37;52509.25;4987494;28;20020;-68
2023/03/17 01:17:36;;;;;;;;;;;;;;;-144.99;73.36;52503.13;4990888;28;20058;-69
2023/03/17 01:20:05;;;;;;;;;;;;;;;-144.99;73.48;52501.09;4995024;28;19926;-69
2023/03/17 01:22:32;;;;;;;;;;;;;;;-144.99;73.70;52448.09;4985359;28;19942;-67
2023/03/17 01:24:58;;;;;;;;;;;;;;;-144.99;73.73;52460.31;4989531;28;19957;-66
2023/03/17 01:27:25;;;;;;;;;;;;;;;-144.99;73.84;52492.94;4987440;28;20434;-66
2023/03/17 01:29:52;;;;;;;;;;;;;;;-144.99;74.01;52448.09;4981114;28;20380;-66
2023/03/17 01:32:19;;;;;;;;;;;;;;;-144.99;74.05;52484.78;4987803;28;20050;-67
2023/03/17 01:34:46;;;;;;;;;;;;;;;-144.99;73.88;52448.09;4980366;28;21189;-66
2023/03/17 01:37:14;;;;;;;;;;;;;;;-144.99;73.92;52513.31;4986792;28;20029;-66
2023/03/17 01:39:41;;;;;;;;;;;;;;;-144.99;73.88;52456.25;4989042;28;19930;-66
2023/03/17 01:42:08;;;;;;;;;;;;;;;-144.99;74.14;52523.50;4987527;28;20373;-66
2023/03/17 01:44:34;;;;;;;;;;;;;;;-144.99;73.92;52541.84;4992095;28;19984;-67
2023/03/17 01:47:01;;;;;;;;;;;;;;;-144.99;74.15;52521.47;4990319;28;20072;-67
2023/03/17 01:49:29;;;;;;;;;;;;;;;-144.99;74.38;52501.09;4991429;28;20404;-67
2023/03/17 01:52:02;;;;;;;;;;;;;;;-144.99;74.23;52509.25;4988721;28;19926;-67
2023/03/17 01:54:33;;;;;;;;;;;;;;;-144.99;74.67;52492.94;4991291;28;19926;-67
2023/03/17 01:57:03;;;;;;;;;;;;;;;-144.99;74.71;52492.94;4990486;28;19925;-68
2023/03/17 01:59:33;;;;;;;;;;;;;;;-144.99;74.58;52478.66;4987765;28;20020;-62
2023/03/17 02:02:02;;;;;;;;;;;;;;;-144.99;74.94;52482.75;4992871;28;19969;-63
2023/03/17 02:04:30;;;;;;;;;;;;;;;-144.99;75.21;52497.00;4995683;28;20137;-63
2023/03/17 02:06:56;;;;;;;;;;;;;;;-144.99;75.58;52492.94;4993873;28;19926;-64
2023/03/17 02:09:23;;;;;;;;;;;;;;;-144.99;75.09;52509.25;4989524;28;19996;-64
2023/03/17 02:11:51;;;;;;;;;;;;;;;-144.99;75.24;52503.13;4984232;28;19988;-65
2023/03/17 02:14:17;;;;;;;;;;;;;;;-144.99;75.20;52492.94;4992168;28;19934;-65
2023/03/17 02:16:44;;;;;;;;;;;;;;;-144.99;75.17;52472.56;4995289;28;19926;-66
2023/03/17 02:19:11;;;;;;;;;;;;;;;-144.99;75.11;52488.84;4994334;28;19976;-66
2023/03/17 02:21:40;;;;;;;;;;;;;;;-144.99;75.12;52505.16;4997504;28;19937;-67
2023/03/17 02:24:09;;;;;;;;;;;;;;;-144.99;75.06;52448.09;4994047;28;19984;-62
2023/03/17 02:26:36;;;;;;;;;;;;;;;-144.99;75.19;52460.31;4984388;28;20013;-62
2023/03/17 02:29:04;;;;;;;;;;;;;;;-144.99;75.10;52497.00;4990417;28;20311;-62
2023/03/17 02:31:30;;;;;;;;;;;;;;;-144.99;75.28;52464.41;4990886;28;19932;-62
2023/03/17 02:33:57;;;;;;;;;;;;;;;-144.99;75.37;52468.47;4989433;28;19976;-62
2023/03/17 02:36:23;;;;;;;;;;;;;;;-144.99;75.33;52488.84;4993765;28;20438;-62
2023/03/17 02:38:52;;;;;;;;;;;;;;;-144.99;75.63;52517.41;4990055;28;20013;-62
2023/03/17 02:41:18;;;;;;;;;;;;;;;-144.99;75.78;52480.72;4990096;28;20247;-62
2023/03/17 02:43:47;;;;;;;;;;;;;;;-144.99;75.73;52456.25;4987208;28;20167;-61
2023/03/17 02:46:13;;;;;;;;;;;;;;;-144.99;75.76;52456.25;4990290;28;19949;-62
2023/03/17 02:48:40;;;;;;;;;;;;;;;-144.99;75.80;52492.94;4988975;28;19930;-70
2023/03/17 02:51:07;;;;;;;;;;;;;;;-144.99;75.75;52480.72;4990272;28;19952;-69
2023/03/17 02:53:33;;;;;;;;;;;;;;;-144.99;76.08;52460.31;4988181;28;19929;-70
2023/03/17 02:56:01;;;;;;;;;;;;;;;-144.99;76.34;52517.41;4983328;28;19929;-68
2023/03/17 02:58:28;;;;;;;;;;;;;;;-144.99;76.16;52476.63;4985986;28;19933;-67
2023/03/17 03:00:54;;;;;;;;;;;;;;;-144.99;76.53;52452.16;4982262;28;19926;-67
2023/03/17 03:03:21;;;;;;;;;;;;;;;-144.99;76.18;52480.72;4987213;28;19937;-68
2023/03/17 03:05:48;;;;;;;;;;;;;;;-144.99;76.24;52470.50;4989707;28;20016;-68
2023/03/17 03:08:15;;;;;;;;;;;;;;;-144.99;75.95;52468.47;4989515;28;20562;-67
2023/03/17 03:10:41;;;;;;;;;;;;;;;-144.99;75.98;52480.72;4990447;28;19930;-69
2023/03/17 03:13:09;;;;;;;;;;;;;;;-144.99;75.88;52488.84;4989595;28;19972;-67
2023/03/17 03:15:36;;;;;;;;;;;;;;;-144.99;76.03;52501.09;4991133;28;19938;-67
2023/03/17 03:18:03;;;;;;;;;;;;;;;-144.99;76.52;52490.91;4989890;28;19976;-67
2023/03/17 03:20:29;;;;;;;;;;;;;;;-144.99;76.23;52464.41;4994211;28;19926;-67
2023/03/17 03:22:56;;;;;;;;;;;;;;;-144.99;76.24;52431.78;4987556;28;20396;-67
2023/03/17 03:25:22;;;;;;;;;;;;;;;-144.99;76.25;52474.59;4984464;28;19926;-66
2023/03/17 03:27:49;;;;;;;;;;;;;;;-144.99;76.41;52472.56;4990291;28;19933;-67
2023/03/17 03:30:17;;;;;;;;;;;;;;;-144.99;76.39;52492.94;4988985;28;19933;-68
2023/03/17 03:32:43;;;;;;;;;;;;;;;-144.99;76.61;52439.94;4990349;28;20047;-69
2023/03/17 03:35:10;;;;;;;;;;;;;;;-144.99;76.61;52468.47;4988470;28;19930;-66
2023/03/17 03:37:37;;;;;;;;;;;;;;;-144.99;76.67;52464.41;4991679;28;20048;-66
2023/03/17 03:40:03;;;;;;;;;;;;;;;-144.99;76.75;52490.91;4982704;28;19980;-66
2023/03/17 03:42:30;;;;;;;;;;;;;;;-144.99;76.70;52464.41;4987053;28;19926;-69
2023/03/17 03:44:56;;;;;;;;;;;;;;;-144.99;77.01;52464.41;4980706;28;19933;-70
2023/03/17 03:47:24;;;;;;;;;;;;;;;-144.99;77.21;52509.25;4987590;28;19930;-68
2023/03/17 03:49:51;;;;;;;;;;;;;;;-144.99;77.09;52458.28;4989379;28;19981;-70
2023/03/17 03:52:17;;;;;;;;;;;;;;;-144.99;77.17;52492.94;4990073;28;19980;-70
2023/03/17 03:54:44;;;;;;;;;;;;;;;-144.99;77.33;52505.16;4988939;28;19926;-72
2023/03/17 03:57:11;;;;;;;;;;;;;;;-144.99;77.24;52484.78;4986418;28;19945;-71
2023/03/17 03:59:37;;;;;;;;;;;;;;;-144.99;77.22;52497.00;4982015;28;20068;-70
2023/03/17 04:02:05;;;;;;;;;;;;;;;-144.99;77.46;52480.72;4994007;28;20399;-69
2023/03/17 04:04:33;;;;;;;;;;;;;;;-144.99;77.48;52448.09;4990968;28;19945;-70
2023/03/17 04:07:00;;;;;;;;;;;;;;;-144.99;77.60;52488.84;4993622;28;20397;-70
2023/03/17 04:09:27;;;;;;;;;;;;;;;-144.99;77.56;52501.09;4992956;28;19926;-69
2023/03/17 04:11:53;;;;;;;;;;;;;;;-144.99;77.74;52480.72;4993486;28;19980;-69
2023/03/17 04:14:20;;;;;;;;;;;;;;;-144.99;77.98;52501.09;4992733;28;20267;-66
2023/03/17 04:16:46;;;;;;;;;;;;;;;-144.99;78.16;52509.25;4992131;28;19929;-69
2023/03/17 04:19:14;;;;;;;;;;;;;;;-144.99;78.02;52452.16;4992795;28;19930;-68
2023/03/17 04:21:42;;;;;;;;;;;;;;;-144.99;78.18;52468.47;4993336;28;20395;-70
2023/03/17 04:24:08;;;;;;;;;;;;;;;-144.99;78.27;52460.31;4991171;28;20367;-64
2023/03/17 04:26:35;;;;;;;;;;;;;;;-144.99;78.49;52501.09;4992939;28;19926;-65
2023/03/17 04:29:02;;;;;;;;;;;;;;;-144.99;78.57;52484.78;4992743;28;19937;-65
2023/03/17 04:31:28;;;;;;;;;;;;;;;-144.99;78.57;52468.47;4992777;28;19930;-65
2023/03/17 04:33:55;;;;;;;;;;;;;;;-144.99;78.55;52488.84;4991097;28;20327;-65
2023/03/17 04:36:23;;;;;;;;;;;;;;;-144.99;78.67;52482.75;4995486;28;19964;-64
2023/03/17 04:38:51;;;;;;;;;;;;;;;-144.99;78.59;52488.84;4992606;28;20383;-62
2023/03/17 04:41:18;;;;;;;;;;;;;;;-144.99;78.74;52486.81;4987588;28;19972;-62
2023/03/17 04:43:44;;;;;;;;;;;;;;;-144.99;78.83;52480.72;4990180;28;19996;-61
2023/03/17 04:46:11;;;;;;;;;;;;;;;-144.99;78.64;52460.31;4990237;28;19925;-63
2023/03/17 04:48:38;;;;;;;;;;;;;;;-144.99;78.43;52468.47;4991596;28;20140;-64
2023/03/17 04:51:04;;;;;;;;;;;;;;;-144.99;78.93;52492.94;4990058;28;19930;-63
2023/03/17 04:53:31;;;;;;;;;;;;;;;-144.99;78.73;52497.00;4989859;28;19936;-65
2023/03/17 04:55:59;;;;;;;;;;;;;;;-144.99;79.26;52464.41;4991138;28;19925;-70
2023/03/17 04:58:26;;;;;;;;;;;;;;;-144.99;79.21;52480.72;4997185;28;19957;-70
2023/03/17 05:00:52;;;;;;;;;;;;;;;-144.99;79.02;52472.56;4997839;28;19926;-70
2023/03/17 05:03:19;;;;;;;;;;;;;;;-144.99;79.02;52425.66;4996173;28;19926;-70
2023/03/17 05:05:46;;;;;;;;;;;;;;;-144.99;79.37;52488.84;4998616;28;20032;-69
2023/03/17 05:08:13;;;;;;;;;;;;;;;-144.99;79.10;52472.56;5000808;28;19930;-70
2023/03/17 05:10:40;;;;;;;;;;;;;;;-144.99;79.21;52476.63;5000094;28;20227;-64
2023/03/17 05:13:07;;;;;;;;;;;;;;;-144.99;79.45;52480.72;4990506;28;19930;-66
2023/03/17 05:15:35;;;;;;;;;;;;;;;-144.99;79.32;52452.16;4992755;28;20372;-66
2023/03/17 05:18:01;;;;;;;;;;;;;;;-144.99;79.57;52460.31;4983847;28;20013;-67
2023/03/17 05:20:28;;;;;;;;;;;;;;;-144.99;79.44;52444.03;4986867;28;19926;-72
2023/03/17 05:22:55;;;;;;;;;;;;;;;-144.99;79.82;52472.56;4990599;28;20358;-69
2023/03/17 05:25:22;;;;;;;;;;;;;;;-144.99;79.83;52476.63;4984639;28;19926;-65
2023/03/17 05:27:48;;;;;;;;;;;;;;;-144.99;79.95;52492.94;4985440;28;19949;-68
2023/03/17 05:30:17;;;;;;;;;;;;;;;-144.99;80.09;52484.78;4992644;28;19977;-67
2023/03/17 05:32:43;;;;;;;;;;;;;;;-144.99;80.68;52464.41;4992153;28;19960;-68
2023/03/17 05:35:10;;;;;;;;;;;;;;;-144.99;80.38;52488.84;4984081;28;19997;-67
2023/03/17 05:37:36;;;;;;;;;;;;;;;-144.99;80.15;52513.31;4989158;28;20445;-67
2023/03/17 05:40:03;;;;;;;;;;;;;;;-144.99;80.16;52462.34;4984293;28;20009;-68
2023/03/17 05:42:30;;;;;;;;;;;;;;;-144.99;80.25;52464.41;5030452;22;19940;-66
2023/03/17 05:44:57;;;;;;;;;;;;;;;-144.99;79.88;52472.56;5037995;28;19972;-66
2023/03/17 05:47:25;;;;;;;;;;;;;;;-144.99;80.20;52439.94;5030015;28;20400;-66
2023/03/17 05:49:52;;;;;;;;;;;;;;;-144.99;80.25;52488.84;5021747;28;20107;-66
2023/03/17 05:52:19;;;;;;;;;;;;;;;-144.99;80.08;52464.41;5029216;28;19982;-66
2023/03/17 05:54:47;;;;;;;;;;;;;;;-144.99;80.07;52472.56;5032604;28;19983;-67
2023/03/17 05:57:14;;;;;;;;;;;;;;;-144.99;80.08;52452.16;5024560;28;19951;-69
2023/03/17 05:59:41;;;;;;;;;;;;;;;-144.99;79.81;52468.47;5028061;28;20388;-68
2023/03/17 06:02:08;;;;;;;;;;;;;;;-144.99;79.76;52476.63;5033531;28;20110;-67
2023/03/17 06:04:36;;;;;;;;;;;;;;;-144.99;79.58;52484.78;5029677;28;19932;-66
2023/03/17 06:07:03;;;;;;;;;;;;;;;-144.99;79.56;52456.25;5022865;28;19929;-66
2023/03/17 06:09:30;;;;;;;;;;;;;;;-144.99;79.49;52484.78;5029053;28;20035;-67
2023/03/17 06:11:56;;;;;;;;;;;;;;;-144.99;79.49;52456.25;5029811;28;19965;-67
2023/03/17 06:14:23;;;;;;;;;;;;;;;-144.99;79.21;52452.16;5022951;28;20393;-72
2023/03/17 06:16:50;;;;;;;;;;;;;;;-144.99;79.62;52448.09;4333580;28;10000711;-72
2023/03/17 06:19:16;;;;;;;;;;;;;;;-144.99;79.32;52444.03;5024361;28;20381;-71
2023/03/17 06:21:44;;;;;;;;;;;;;;;-144.99;79.40;52492.94;5025461;28;20128;-72
2023/03/17 06:24:11;;;;;;;;;;;;;;;-144.99;79.39;52460.31;5026163;28;19933;-72
2023/03/17 06:26:37;;;;;;;;;;;;;;;-144.99;78.88;52472.56;5026849;28;19935;-72
2023/03/17 06:29:07;;;;;;;;;;;;;;;-144.99;78.54;52466.44;5026493;28;19933;-71
2023/03/17 06:31:34;;;;;;;;;;;;;;;-144.99;78.45;52456.25;5028466;28;20253;-73
2023/03/17 06:34:01;;;;;;;;;;;;;;;-144.99;78.31;52421.59;5026660;28;19986;-72
2023/03/17 06:36:27;;;;;;;;;;;;;;;-144.99;78.29;52494.97;5027184;28;19936;-72
2023/03/17 06:38:55;;;;;;;;;;;;;;;-144.99;78.29;52456.25;5022826;28;19928;-72
2023/03/17 06:41:22;;;;;;;;;;;;;;;-144.99;78.18;52446.06;5030871;28;20435;-73
2023/03/17 06:43:48;;;;;;;;;;;;;;;-144.99;77.99;52456.25;5028433;28;19937;-73
2023/03/17 06:46:15;;;;;;;;;;;;;;;-144.99;78.02;52439.94;5026567;28;19929;-73
2023/03/17 06:48:42;;;;;;;;;;;;;;;-144.99;78.31;52439.94;5026651;28;20344;-73
2023/03/17 06:51:09;;;;;;;;;;;;;;;-144.99;78.01;52448.09;5028347;28;19944;-73
2023/03/17 06:53:36;;;;;;;;;;;;;;;-144.99;77.94;52476.63;5028506;28;19925;-73
2023/03/17 06:56:04;;;;;;;;;;;;;;;-144.99;77.58;52435.88;5027103;28;20290;-73
2023/03/17 06:58:31;;;;;;;;;;;;;;;-144.99;76.97;52431.78;5019139;28;19933;-73
2023/03/17 07:00:58;;;;;;;;;;;;;;;-144.99;76.65;52403.25;5028970;28;19929;-73
2023/03/17 07:03:25;;;;;;;;;;;;;;;-144.99;76.67;52419.56;5025492;28;20266;-73
2023/03/17 07:05:52;;;;;;;;;;;;;;;-144.99;76.50;52450.13;5020356;28;20503;-73
2023/03/17 07:08:18;;;;;;;;;;;;;;;-144.99;76.95;52431.78;5030854;28;19925;-73
2023/03/17 07:10:45;;;;;;;;;;;;;;;-144.99;76.75;52456.25;5028438;28;20469;-73
2023/03/17 07:13:13;;;;;;;;;;;;;;;-144.99;76.66;52435.88;5034283;28;19933;-73
2023/03/17 07:15:40;;;;;;;;;;;;;;;-144.99;76.48;52419.56;5025763;28;20027;-73
2023/03/17 07:18:07;;;;;;;;;;;;;;;-144.99;76.40;52456.25;5027243;28;19936;-73
2023/03/17 07:20:34;;;;;;;;;;;;;;;-144.99;76.17;52456.25;5027027;28;20130;-73
2023/03/17 07:23:01;;;;;;;;;;;;;;;-144.99;76.06;52431.78;5027110;28;19935;-73
2023/03/17 07:25:27;;;;;;;;;;;;;;;-144.99;76.18;52444.03;5028414;28;19956;-73
2023/03/17 07:27:55;;;;;;;;;;;;;;;-144.99;75.97;52444.03;5029309;28;19935;-73
2023/03/17 07:30:23;;;;;;;;;;;;;;;-144.99;75.81;52417.53;5027078;28;19928;-73
2023/03/17 07:32:49;;;;;;;;;;;;;;;-144.99;75.24;52415.47;5025833;28;19983;-73
2023/03/17 07:35:16;;;;;;;;;;;;;;;-144.99;74.78;52413.44;5026933;28;19936;-73
2023/03/17 07:37:43;;;;;;;;;;;;;;;-144.99;74.36;52403.25;5027796;28;20421;-73
2023/03/17 07:40:10;;;;;;;;;;;;;;;-144.99;74.07;52407.31;5022715;28;19933;-73
2023/03/17 07:42:37;;;;;;;;;;;;;;;-144.99;73.63;52399.19;5025220;28;19929;-73
2023/03/17 07:45:04;;;;;;;;;;;;;;;-144.99;73.64;52423.63;5027138;28;19933;-71
2023/03/17 07:47:32;;;;;;;;;;;;;;;-144.99;73.58;52435.88;5027101;28;20517;-74
2023/03/17 07:49:59;;;;;;;;;;;;;;;-144.99;73.40;52439.94;5028698;28;19991;-74
2023/03/17 07:52:25;;;;;;;;;;;;;;;-144.99;73.37;52431.78;5023866;28;20366;-72
2023/03/17 07:54:52;;;;;;;;;;;;;;;-144.99;73.04;52386.94;5027850;28;20433;-72
2023/03/17 07:57:19;;;;;;;;;;;;;;;-144.99;73.18;52407.31;5021630;28;20024;-74
2023/03/17 07:59:46;;;;;;;;;;;;;;;-144.99;73.56;52433.81;5025793;28;19932;-74
2023/03/17 08:02:14;;;;;;;;;;;;;;;-144.99;73.09;52409.38;5033008;28;19928;-73
2023/03/17 08:04:42;;;;;;;;;;;;;;;-144.99;72.85;52399.19;5030216;28;19940;-74
2023/03/17 08:07:09;;;;;;;;;;;;;;;-144.99;72.90;52382.88;5023497;28;19929;-73
2023/03/17 08:09:36;;;;;;;;;;;;;;;-144.99;72.65;52411.41;5029080;28;19924;-74
2023/03/17 08:12:02;;;;;;;;;;;;;;;-144.99;71.84;52399.19;5020322;28;20343;-74
2023/03/17 08:14:29;;;;;;;;;;;;;;;-144.99;71.49;52433.81;5025043;28;20020;-73
2023/03/17 08:16:56;;;;;;;;;;;;;;;-144.99;71.69;52358.41;5028538;28;20254;-73
2023/03/17 08:19:23;;;;;;;;;;;;;;;-144.99;72.07;52423.63;4679465;28;9999891;-73
2023/03/17 08:21:51;;;;;;;;;;;;;;;-144.99;71.81;52378.78;5027681;28;19936;-73
2023/03/17 08:24:17;;;;;;;;;;;;;;;-144.99;71.81;52403.25;5030757;28;20363;-73
2023/03/17 08:26:47;;;;;;;;;;;;;;;-144.99;71.76;52366.56;5028379;28;20393;-73
2023/03/17 08:29:14;;;;;;;;;;;;;;;-144.99;71.47;52386.94;5027064;28;20481;-73
2023/03/17 08:31:40;;;;;;;;;;;;;;;-144.99;71.37;52403.25;5028546;28;20191;-73
2023/03/17 08:34:07;;;;;;;;;;;;;;;-144.99;71.30;52419.56;5026483;28;20393;-73
2023/03/17 08:36:34;;;;;;;;;;;;;;;-144.99;71.28;52346.19;5026606;28;20237;-73
2023/03/17 08:39:03;;;;;;;;;;;;;;;-144.99;70.73;52382.88;5025733;28;19978;-73
2023/03/17 08:41:30;;;;;;;;;;;;;;;-144.99;70.38;52366.56;5025467;28;20025;-73
2023/03/17 08:43:57;;;;;;;;;;;;;;;-144.99;70.50;52374.72;5028494;28;20163;-73
2023/03/17 08:46:25;;;;;;;;;;;;;;;-144.99;69.48;52407.31;5025323;28;19937;-73
2023/03/17 08:48:53;;;;;;;;;;;;;;;-144.99;69.46;52354.34;5031864;28;20020;-73
2023/03/17 08:51:21;;;;;;;;;;;;;;;-144.99;69.46;52366.56;5031978;28;19929;-73
2023/03/17 08:53:48;;;;;;;;;;;;;;;-144.99;69.27;52327.84;5028873;28;19929;-73
2023/03/17 08:56:16;;;;;;;;;;;;;;;-144.99;69.23;52395.09;5023548;28;20125;-73
2023/03/17 08:58:43;;;;;;;;;;;;;;;-144.99;69.34;52362.50;5028829;28;20389;-73
2023/03/17 09:01:10;;;;;;;;;;;;;;;-144.99;69.23;52382.88;5028005;28;19929;-74
2023/03/17 09:03:38;;;;;;;;;;;;;;;-144.99;69.22;52366.56;5029377;28;19929;-73
2023/03/17 09:06:05;;;;;;;;;;;;;;;-144.99;69.07;52346.19;5025798;28;20407;-74
2023/03/17 09:08:33;;;;;;;;;;;;;;;-144.99;68.52;52354.34;5023136;28;20027;-73
2023/03/17 09:10:59;;;;;;;;;;;;;;;-144.99;68.20;52333.94;5032367;28;19987;-73
2023/03/17 09:13:28;;;;;;;;;;;;;;;-144.99;68.52;52319.69;5032600;28;20293;-73
2023/03/17 09:15:54;;;;;;;;;;;;;;;-144.99;68.03;52350.25;5039894;28;19983;-74
2023/03/17 09:18:21;;;;;;;;;;;;;;;-144.99;67.06;52366.56;5026989;28;20168;-73
2023/03/17 09:20:48;;;;;;;;;;;;;;;-144.99;66.98;52370.63;5017307;28;19972;-73
2023/03/17 09:23:15;;;;;;;;;;;;;;;-144.99;67.70;52395.09;5023318;28;19979;-73
2023/03/17 09:25:42;;;;;;;;;;;;;;;-144.99;67.70;52354.34;5023878;28;20019;-73
2023/03/17 09:28:08;;;;;;;;;;;;;;;-144.99;67.77;52350.25;5024452;28;19987;-73
2023/03/17 09:30:36;;;;;;;;;;;;;;;-144.99;67.66;52352.28;5020977;28;20022;-73
2023/03/17 09:33:03;;;;;;;;;;;;;;;-144.99;67.62;52354.34;5029355;28;19930;-73
2023/03/17 09:35:31;;;;;;;;;;;;;;;-144.99;67.28;52325.81;5029275;28;19952;-74
2023/03/17 09:37:57;;;;;;;;;;;;;;;-144.99;67.11;52327.84;5024442;28;19925;-73
2023/03/17 09:40:31;;;;;;;;;;;;;;;-144.99;66.82;52313.56;5032892;28;19983;-73
2023/03/17 09:43:04;;;;;;;;;;;;;;;-144.99;66.75;52336.00;5021714;28;20015;-73
2023/03/17 09:45:33;;;;;;;;;;;;;;;-144.99;66.61;52297.25;5029273;28;19924;-74
2023/03/17 09:48:21;;;;;;;;;;;;;;;-144.99;66.23;52276.88;5031075;28;20071;-73
2023/03/17 09:50:52;;;;;;;;;;;;;;;-144.99;65.57;52346.19;5028476;28;20448;-74
2023/03/17 09:53:21;;;;;;;;;;;;;;;-144.99;64.46;52285.03;5029414;28;19935;-74
2023/03/17 09:55:51;;;;;;;;;;;;;;;-144.99;64.13;52260.56;5028724;28;19929;-74
2023/03/17 09:58:20;;;;;;;;;;;;;;;-144.99;63.37;52256.50;5030743;28;19968;-74
2023/03/17 10:00:47;;;;;;;;;;;;;;;-144.99;63.36;52280.97;5032664;28;19933;-74
2023/03/17 10:03:16;;;;;;;;;;;;;;;-144.99;62.68;52232.03;5031804;28;19941;-74
2023/03/17 10:05:43;;;;;;;;;;;;;;;-144.99;62.36;52256.50;5021110;28;19936;-74
2023/03/17 10:08:13;;;;;;;;;;;;;;;-144.99;61.92;52215.75;5025660;28;19955;-74
2023/03/17 10:10:42;;;;;;;;;;;;;;;-144.99;62.00;52266.69;5026924;28;20188;-74
2023/03/17 10:13:14;;;;;;;;;;;;;;;-144.99;62.35;52232.03;5023546;28;19968;-73
2023/03/17 10:15:43;;;;;;;;;;;;;;;-144.99;62.49;52248.34;5026618;28;19929;-73
2023/03/17 10:18:11;;;;;;;;;;;;;;;-144.99;63.11;52285.03;5029788;28;19961;-73
2023/03/17 10:20:43;;;;;;;;;;;;;;;-144.99;63.58;52305.41;5028387;28;20499;-73
2023/03/17 10:23:13;;;;;;;;;;;;;;;-144.99;64.32;52329.88;5026816;28;19998;-73
2023/03/17 10:25:40;;;;;;;;;;;;;;;-144.99;63.96;52317.66;5027925;28;20010;-72
2023/03/17 10:28:08;;;;;;;;;;;;;;;-144.99;64.23;52321.72;5032256;28;19929;-73
2023/03/17 10:30:35;;;;;;;;;;;;;;;-144.99;64.43;52299.31;5028647;28;19966;-72
2023/03/17 10:33:05;;;;;;;;;;;;;;;-144.99;64.71;52315.59;5025136;28;19968;-73
2023/03/17 10:35:34;;;;;;;;;;;;;;;-144.99;64.94;52297.25;5026385;28;19925;-73
2023/03/17 10:38:13;;;;;;;;;;;;;;;-144.99;64.71;52317.66;5017686;28;20006;-72
2023/03/17 10:40:40;;;;;;;;;;;;;;;-144.99;64.33;52293.19;5031285;28;19984;-72
2023/03/17 10:43:08;;;;;;;;;;;;;;;-144.99;63.97;52289.13;5034814;28;20016;-72
2023/03/17 10:45:37;;;;;;;;;;;;;;;-144.99;63.68;52215.75;5028195;28;20032;-72
2023/03/17 10:48:08;;;;;;;;;;;;;;;-144.99;62.60;52244.28;5026680;28;19968;-72
2023/03/17 10:50:36;;;;;;;;;;;;;;;-144.99;62.03;52236.13;5034099;28;19976;-73
2023/03/17 10:53:07;;;;;;;;;;;;;;;-144.99;61.52;52252.44;5027265;28;19933;-73
2023/03/17 10:55:39;;;;;;;;;;;;;;;-144.99;60.52;52203.50;5026069;28;20008;-73
2023/03/17 10:58:07;;;;;;;;;;;;;;;-144.99;61.20;52154.59;5026811;28;19933;-73
2023/03/17 11:00:35;;;;;;;;;;;;;;;-144.99;60.21;52150.53;5027928;28;19925;-73
2023/03/17 11:03:04;;;;;;;;;;;;;;;-144.99;59.39;52174.97;5026593;28;19972;-73
2023/03/17 11:05:30;;;;;;;;;;;;;;;-144.99;59.50;52124.03;5023911;28;20344;-73
2023/03/17 11:07:57;;;;;;;;;;;;;;;-144.99;59.50;52154.59;5026258;28;20396;-73
2023/03/17 11:10:26;;;;;;;;;;;;;;;-144.99;60.18;52146.44;5020958;28;19925;-73
2023/03/17 11:12:56;;;;;;;;;;;;;;;-144.99;60.05;52115.88;5025311;28;19929;-72
2023/03/17 11:15:23;;;;;;;;;;;;;;;-144.99;60.10;52172.94;5030513;28;19925;-72
2023/03/17 11:17:53;;;;;;;;;;;;;;;-144.99;59.35;52109.75;5024178;28;19941;-72
2023/03/17 11:20:34;;;;;;;;;;;;;;;-144.99;59.18;52117.91;5022890;28;19966;-73
2023/03/17 11:23:04;;;;;;;;;;;;;;;-144.99;58.27;52091.41;5026751;28;19933;-73
2023/03/17 11:25:34;;;;;;;;;;;;;;;-144.99;58.41;52105.69;5027309;28;19929;-73
2023/03/17 11:28:15;;;;;;;;;;;;;;;-144.99;57.69;52109.75;5025622;28;19929;-73
2023/03/17 11:30:46;;;;;;;;;;;;;;;-144.99;57.85;52130.13;5026487;28;19936;-73
2023/03/17 11:33:28;;;;;;;;;;;;;;;-144.99;58.51;52152.56;5022735;28;20317;-73
2023/03/17 11:35:56;;;;;;;;;;;;;;;-144.99;58.36;52109.75;5023197;28;20023;-73
2023/03/17 11:38:24;;;;;;;;;;;;;;;-144.99;58.39;52105.69;5027700;28;19933;-72
2023/03/17 11:41:02;;;;;;;;;;;;;;;-144.99;58.05;52091.41;5021432;28;19929;-73
2023/03/17 11:43:33;;;;;;;;;;;;;;;-144.99;56.81;52081.22;5022324;28;20417;-73
2023/03/17 11:46:04;;;;;;;;;;;;;;;-144.99;56.92;52089.38;5043110;22;19914;-71
2023/03/17 11:48:37;;;;;;;;;;;;;;;-144.99;56.83;52113.84;5042610;28;19979;-69
2023/03/17 11:51:10;;;;;;;;;;;;;;;-144.99;56.49;52048.63;5041254;28;20557;-69
2023/03/17 11:53:45;;;;;;;;;;;;;;;-144.99;56.68;52036.38;5041111;28;19975;-69
2023/03/17 11:56:17;;;;;;;;;;;;;;;-144.99;56.65;52032.31;5020081;28;19991;-68
2023/03/17 11:58:47;;;;;;;;;;;;;;;-144.99;56.81;52048.63;5004710;28;20393;-68
2023/03/17 12:01:15;;;;;;;;;;;;;;;-144.99;57.29;52081.22;5007407;28;19930;-69
2023/03/17 12:03:44;;;;;;;;;;;;;;;-144.99;56.83;52052.69;5009344;28;19952;-69
2023/03/17 12:06:16;;;;;;;;;;;;;;;-144.99;57.83;52040.47;5006396;28;20071;-69
2023/03/17 12:08:46;;;;;;;;;;;;;;;-144.99;57.42;52048.63;5004499;28;20400;-69
2023/03/17 12:11:16;;;;;;;;;;;;;;;-144.99;56.66;52024.16;5015134;28;19961;-68
2023/03/17 12:13:45;;;;;;;;;;;;;;;-144.99;56.75;52077.16;5015219;28;20464;-68
2023/03/17 12:16:16;;;;;;;;;;;;;;;-144.99;56.45;52058.81;5013507;28;19929;-68
2023/03/17 12:18:48;;;;;;;;;;;;;;;-144.99;56.57;52016.00;5008916;28;20187;-69
2023/03/17 12:21:20;;;;;;;;;;;;;;;-144.99;56.51;52056.78;5017776;28;19973;-69
2023/03/17 12:23:48;;;;;;;;;;;;;;;-144.99;57.18;52089.38;5012350;28;20028;-69
2023/03/17 12:26:18;;;;;;;;;;;;;;;-144.99;57.21;52018.03;5010544;28;19984;-69
2023/03/17 12:28:49;;;;;;;;;;;;;;;-144.99;56.59;52101.59;5018839;28;20022;-70